Aviation Digital Data Service (ADDS)

Output produced by METARs form (0338 UTC 17 July 2018)
found at http://aviationweather.gov/adds/metars/
 
KSGR 162329Z 1700/1724 20008KT P6SM FEW050 
     FM171100 22003KT 6SM HZ SKC 
     FM171500 22008KT P6SM FEW035